Time;durP1;ratioP1;P1;durP2;ratioP2;P2;SDS_P1;SDS_P2;PMS_P1;PMS_P2;Temp;Humidity;BMP_temperature;BMP_pressure;BME280_temperature;BME280_humidity;BME280_pressure;Samples;Min_cycle;Max_cycle;Signal;HPM_P1;HPM_P2
2023/01/29 00:02:07;;;;;;;42.97;26.97;;;0.20;99.90;;;;;;5082591;28;20442;-83
2023/01/29 00:04:34;;;;;;;45.50;27.83;;;0.20;99.90;;;;;;5094978;28;20936;-83
2023/01/29 00:07:01;;;;;;;44.20;28.53;;;0.20;99.90;;;;;;5094912;28;20445;-84
2023/01/29 00:09:30;;;;;;;46.47;28.53;;;0.10;99.90;;;;;;5095701;28;20442;-83
2023/01/29 00:11:57;;;;;;;48.73;29.57;;;0.10;99.90;;;;;;5094803;28;20441;-82
2023/01/29 00:14:25;;;;;;;46.30;29.33;;;0.00;99.90;;;;;;5095179;28;20442;-84
2023/01/29 00:16:51;;;;;;;49.03;28.67;;;0.10;99.90;;;;;;5094949;28;20537;-85
2023/01/29 00:19:20;;;;;;;49.47;29.33;;;0.00;99.90;;;;;;5094822;28;20461;-85
2023/01/29 00:21:47;;;;;;;47.73;28.57;;;0.00;99.90;;;;;;5088953;28;20570;-83
2023/01/29 00:24:13;;;;;;;46.50;27.33;;;-0.10;99.90;;;;;;5081233;28;20455;-82
2023/01/29 00:26:41;;;;;;;45.67;28.63;;;-0.10;99.90;;;;;;5089581;28;20450;-84
2023/01/29 00:29:08;;;;;;;47.27;28.43;;;0.00;99.90;;;;;;5079182;28;20442;-85
2023/01/29 00:31:37;;;;;;;46.30;29.07;;;0.00;99.90;;;;;;5085961;28;20955;-83
2023/01/29 00:34:09;;;;;;;43.83;27.53;;;-0.20;99.90;;;;;;5094692;28;20441;-84
2023/01/29 00:36:38;;;;;;;48.33;28.47;;;-0.20;99.90;;;;;;5094302;28;20551;-82
2023/01/29 00:39:09;;;;;;;44.97;27.53;;;0.00;99.90;;;;;;5094826;28;20453;-85
2023/01/29 00:47:29;;;;;;;46.37;30.33;;;-0.10;99.90;;;;;;5094564;28;20460;-86
2023/01/29 00:49:53;;;;;;;45.47;27.10;;;-0.10;99.90;;;;;;5079610;28;20544;-83
2023/01/29 00:52:24;;;;;;;40.83;26.53;;;-0.10;99.90;;;;;;5094607;28;20477;-81
2023/01/29 00:54:53;;;;;;;51.15;34.83;;;-0.10;99.90;;;;;;5094089;28;20426;-84
2023/01/29 00:57:20;;;;;;;42.30;29.00;;;-0.10;99.90;;;;;;5094190;28;20240;-83
2023/01/29 00:59:47;;;;;;;48.17;28.93;;;-0.10;99.90;;;;;;5094465;28;20438;-84
2023/01/29 01:04:58;;;;;;;39.17;26.40;;;-0.20;99.90;;;;;;5093532;28;21074;-82
2023/01/29 01:07:26;;;;;;;43.30;27.63;;;-0.20;99.90;;;;;;5087166;28;20451;-80
2023/01/29 01:12:39;;;;;;;40.43;26.40;;;-0.20;99.90;;;;;;5094142;28;20786;-82
2023/01/29 01:15:07;;;;;;;42.27;27.97;;;-0.20;99.90;;;;;;5093782;28;20442;-85
2023/01/29 01:17:34;;;;;;;43.67;27.27;;;-0.20;99.90;;;;;;5093365;28;20485;-81
2023/01/29 01:20:01;;;;;;;38.63;26.87;;;-0.10;99.90;;;;;;5091077;28;20527;-80
2023/01/29 01:22:30;;;;;;;40.10;25.97;;;-0.20;99.90;;;;;;5091496;28;20462;-82
2023/01/29 01:24:56;;;;;;;41.53;26.07;;;-0.20;99.90;;;;;;5089806;28;20455;-86
2023/01/29 01:27:24;;;;;;;42.70;27.77;;;-0.10;99.90;;;;;;5088332;28;20473;-84
2023/01/29 01:29:51;;;;;;;40.33;26.43;;;-0.20;99.90;;;;;;5081420;28;20454;-84
2023/01/29 01:32:18;;;;;;;45.83;26.70;;;-0.40;99.90;;;;;;5092025;28;20452;-83
2023/01/29 01:34:45;;;;;;;36.77;25.17;;;-0.60;99.90;;;;;;5077028;28;20446;-84
2023/01/29 01:37:12;;;;;;;39.07;25.57;;;-0.50;99.90;;;;;;5073500;28;20486;-80
2023/01/29 01:39:40;;;;;;;40.60;25.53;;;-0.40;99.90;;;;;;5087592;28;20451;-82
2023/01/29 01:42:12;;;;;;;43.03;27.93;;;-0.30;99.90;;;;;;5084080;28;20442;-82
2023/01/29 01:44:57;;;;;;;41.23;25.30;;;-0.30;99.90;;;;;;5093603;28;20441;-81
2023/01/29 01:47:30;;;;;;;41.40;26.80;;;-0.20;99.90;;;;;;5093795;28;20507;-86
2023/01/29 01:50:02;;;;;;;43.30;26.03;;;-0.20;99.90;;;;;;5087929;28;20454;-85
2023/01/29 01:52:32;;;;;;;41.20;26.30;;;-0.30;99.90;;;;;;5086160;28;20445;-81
2023/01/29 01:55:01;;;;;;;42.60;26.13;;;-0.30;99.90;;;;;;5087120;28;20538;-80
2023/01/29 01:57:30;;;;;;;43.27;26.13;;;-0.30;99.90;;;;;;5087285;28;20488;-83
2023/01/29 02:00:08;;;;;;;43.03;26.53;;;-0.30;99.90;;;;;;5080163;28;20431;-83
2023/01/29 02:10:52;;;;;;;43.30;25.80;;;-0.60;99.90;;;;;;5082811;28;20429;-81
2023/01/29 02:13:21;;;;;;;37.87;24.83;;;-0.50;99.90;;;;;;5093523;28;20853;-85
2023/01/29 02:15:48;;;;;;;46.87;26.57;;;-0.50;99.90;;;;;;5093332;28;20449;-85
2023/01/29 02:18:17;;;;;;;40.73;25.87;;;-0.50;99.90;;;;;;5092965;28;20932;-85
2023/01/29 02:20:49;;;;;;;43.80;25.90;;;-0.50;99.90;;;;;;5093545;28;20488;-84
2023/01/29 02:23:48;;;;;;;40.77;26.57;;;-0.70;99.90;;;;;;5092842;28;20445;-85
2023/01/29 02:26:45;;;;;;;47.97;34.23;;;-0.60;99.90;;;;;;5079328;28;20434;-85
2023/01/29 02:29:25;;;;;;;43.37;28.27;;;-0.60;99.90;;;;;;5092776;28;20193;-84
2023/01/29 02:32:02;;;;;;;41.33;26.83;;;-0.80;99.90;;;;;;5092020;28;20931;-83
2023/01/29 02:37:31;;;;;;;40.83;25.43;;;-0.70;99.90;;;;;;5079731;28;20485;-84
2023/01/29 02:40:08;;;;;;;41.87;25.13;;;-0.50;99.90;;;;;;5084058;28;20906;-82
2023/01/29 02:42:40;;;;;;;38.83;25.57;;;-0.40;99.90;;;;;;5086921;28;20461;-84
2023/01/29 02:45:13;;;;;;;41.30;25.17;;;-0.30;99.90;;;;;;5084260;28;20517;-84
2023/01/29 02:47:47;;;;;;;39.83;25.87;;;-0.20;99.90;;;;;;5087541;28;20481;-84
2023/01/29 02:50:20;;;;;;;38.83;26.17;;;-0.10;99.90;;;;;;5085658;28;20468;-84
2023/01/29 02:52:56;;;;;;;44.50;26.57;;;-0.10;99.90;;;;;;5093305;28;20444;-84
2023/01/29 02:55:30;;;;;;;38.10;24.93;;;-0.10;99.90;;;;;;5079847;28;20960;-85
2023/01/29 02:58:04;;;;;;;40.53;24.70;;;-0.20;99.90;;;;;;5093029;28;20469;-85
2023/01/29 03:00:36;;;;;;;41.80;25.37;;;-0.10;99.90;;;;;;5093027;28;20438;-83
2023/01/29 03:03:10;;;;;;;40.60;24.73;;;0.00;99.90;;;;;;5080552;28;20462;-84
2023/01/29 03:05:44;;;;;;;43.93;25.93;;;0.10;99.90;;;;;;5092772;28;20438;-84
2023/01/29 03:08:14;;;;;;;41.57;24.63;;;0.30;99.90;;;;;;5092383;28;20444;-85
2023/01/29 03:10:44;;;;;;;38.93;25.20;;;0.40;99.90;;;;;;5092932;28;20542;-83
2023/01/29 03:13:15;;;;;;;41.77;26.57;;;0.50;99.90;;;;;;5093754;28;20438;-85
2023/01/29 03:15:47;;;;;;;37.97;23.93;;;0.40;99.90;;;;;;5095957;28;20459;-84
2023/01/29 03:18:17;;;;;;;38.97;24.60;;;0.40;99.90;;;;;;5096400;28;20485;-85
2023/01/29 03:20:48;;;;;;;37.70;24.13;;;0.30;99.90;;;;;;5096464;28;20464;-84
2023/01/29 03:23:22;;;;;;;36.43;25.17;;;0.30;99.90;;;;;;5096718;28;20818;-83
2023/01/29 03:34:23;;;;;;;37.73;24.27;;;0.40;99.90;;;;;;5095640;28;20437;-86
2023/01/29 03:36:54;;;;;;;39.53;25.20;;;0.40;99.90;;;;;;5096500;28;20532;-84
2023/01/29 03:39:27;;;;;;;37.90;24.13;;;0.40;99.90;;;;;;5092041;28;20462;-86
2023/01/29 03:41:58;;;;;;;36.97;24.33;;;0.40;99.90;;;;;;5087021;28;20441;-83
2023/01/29 03:44:35;;;;;;;39.97;24.27;;;0.50;99.90;;;;;;5096001;28;20442;-83
2023/01/29 03:47:14;;;;;;;37.50;24.57;;;0.60;99.90;;;;;;5096189;28;20507;-82
2023/01/29 03:49:53;;;;;;;38.10;23.37;;;0.60;99.90;;;;;;5084193;28;20441;-83
2023/01/29 03:52:25;;;;;;;36.50;24.20;;;0.50;99.90;;;;;;5095580;28;20450;-85
2023/01/29 03:55:05;;;;;;;34.90;23.73;;;0.50;99.90;;;;;;5096073;28;20445;-85
2023/01/29 03:57:40;;;;;;;44.63;33.03;;;0.40;99.90;;;;;;5095084;28;20495;-84
2023/01/29 04:00:11;;;;;;;46.57;27.17;;;0.50;99.90;;;;;;5095517;28;20701;-84
2023/01/29 04:02:46;;;;;;;38.33;25.67;;;0.40;99.90;;;;;;5095725;28;20789;-84
2023/01/29 04:05:17;;;;;;;39.43;24.83;;;0.40;99.90;;;;;;5092539;28;20442;-85
2023/01/29 04:07:45;;;;;;;35.20;23.03;;;0.50;99.90;;;;;;5085768;28;20460;-83
2023/01/29 04:10:16;;;;;;;41.83;24.87;;;0.60;99.90;;;;;;5095350;28;20916;-85
2023/01/29 04:12:46;;;;;;;35.73;24.13;;;0.60;99.90;;;;;;5095407;28;20457;-84
2023/01/29 04:15:15;;;;;;;38.87;24.33;;;0.60;99.90;;;;;;5095241;28;20948;-86
2023/01/29 04:17:48;;;;;;;35.80;23.60;;;0.60;99.90;;;;;;5094580;28;20481;-84
2023/01/29 04:20:15;;;;;;;35.37;23.37;;;0.60;99.90;;;;;;5095634;28;20454;-84
2023/01/29 04:22:46;;;;;;;36.47;23.33;;;0.70;99.90;;;;;;5095248;28;20460;-84
2023/01/29 04:25:16;;;;;;;38.90;24.90;;;0.70;99.90;;;;;;5095084;28;20445;-83
2023/01/29 04:27:51;;;;;;;39.77;23.23;;;0.70;99.90;;;;;;5094655;28;20771;-84
2023/01/29 04:30:32;;;;;;;35.17;23.00;;;0.70;99.90;;;;;;5095257;28;20460;-83
2023/01/29 04:33:16;;;;;;;33.57;22.33;;;0.70;99.90;;;;;;5095461;28;20468;-84
2023/01/29 04:36:04;;;;;;;32.93;21.60;;;0.70;99.90;;;;;;5095236;28;20827;-83
2023/01/29 04:38:43;;;;;;;37.83;22.80;;;0.50;99.90;;;;;;5074815;28;20482;-85
2023/01/29 04:41:16;;;;;;;35.13;21.37;;;0.60;99.90;;;;;;5088125;28;20453;-84
2023/01/29 04:43:55;;;;;;;38.43;23.43;;;0.70;99.90;;;;;;5087142;28;20532;-84
2023/01/29 04:46:27;;;;;;;34.37;22.07;;;0.70;99.90;;;;;;5081787;28;20952;-85
2023/01/29 04:49:12;;;;;;;35.03;22.03;;;0.70;99.90;;;;;;5095036;28;20453;-85
2023/01/29 04:51:51;;;;;;;34.30;22.30;;;0.70;99.90;;;;;;5094998;28;20813;-86
2023/01/29 04:54:25;;;;;;;35.63;21.67;;;0.80;99.90;;;;;;5094248;28;20776;-85
2023/01/29 04:57:01;;;;;;;38.27;22.80;;;0.90;99.90;;;;;;5093507;28;20441;-85
2023/01/29 04:59:32;;;;;;;39.47;24.27;;;0.90;99.90;;;;;;5074653;28;20442;-83
2023/01/29 05:02:01;;;;;;;37.73;22.87;;;1.00;99.90;;;;;;5084416;28;20465;-85
2023/01/29 05:04:34;;;;;;;38.37;23.00;;;0.90;99.90;;;;;;5085335;28;20466;-84
2023/01/29 05:07:04;;;;;;;34.70;21.70;;;0.80;99.90;;;;;;5081300;28;20437;-83
2023/01/29 05:09:32;;;;;;;36.83;23.03;;;0.90;99.90;;;;;;5093733;28;20449;-81
2023/01/29 05:12:01;;;;;;;38.77;22.63;;;0.90;99.90;;;;;;5093563;28;20855;-82
2023/01/29 05:14:30;;;;;;;41.97;23.50;;;0.80;99.90;;;;;;5092142;28;20819;-87
2023/01/29 05:17:00;;;;;;;34.83;21.97;;;0.70;99.90;;;;;;5083966;28;20947;-83
2023/01/29 05:19:28;;;;;;;37.43;23.50;;;0.70;99.90;;;;;;5080778;28;20446;-84
2023/01/29 05:21:57;;;;;;;39.30;24.37;;;0.80;99.90;;;;;;5087759;28;20439;-85
2023/01/29 05:24:26;;;;;;;38.23;23.60;;;0.80;99.90;;;;;;5087388;28;20823;-85
2023/01/29 05:29:42;;;;;;;36.30;22.03;;;0.80;99.90;;;;;;5094102;28;20456;-83
2023/01/29 05:32:09;;;;;;;37.57;23.07;;;0.90;99.90;;;;;;5093744;28;20453;-84
2023/01/29 05:34:36;;;;;;;40.93;24.10;;;1.10;99.90;;;;;;5093939;28;20457;-84
2023/01/29 05:37:05;;;;;;;37.13;21.70;;;1.10;99.90;;;;;;5089551;28;20455;-85
2023/01/29 05:39:33;;;;;;;38.53;23.10;;;1.10;99.90;;;;;;5085458;28;20924;-81
2023/01/29 05:42:00;;;;;;;39.43;23.87;;;1.00;99.90;;;;;;5093546;28;20533;-83
2023/01/29 05:44:29;;;;;;;40.23;23.93;;;1.10;99.90;;;;;;5093788;28;20446;-82
2023/01/29 05:46:56;;;;;;;37.60;23.40;;;1.20;99.90;;;;;;5075385;28;20463;-85
2023/01/29 05:49:23;;;;;;;39.20;23.90;;;1.20;99.90;;;;;;5086131;28;20912;-82
2023/01/29 05:51:50;;;;;;;40.23;24.00;;;1.30;99.90;;;;;;5093412;28;20449;-83
2023/01/29 05:54:19;;;;;;;40.27;23.43;;;1.30;99.90;;;;;;5093231;28;20441;-86
2023/01/29 05:56:46;;;;;;;39.20;23.13;;;1.30;99.90;;;;;;5094014;28;20456;-85
2023/01/29 05:59:12;;;;;;;45.67;33.00;;;1.40;99.90;;;;;;5092732;28;20445;-85
2023/01/29 06:01:39;;;;;;;40.60;25.50;;;1.30;99.90;;;;;;5080566;28;20205;-83
2023/01/29 06:04:06;;;;;;;41.30;24.50;;;1.30;99.90;;;;;;5093196;28;20441;-82
2023/01/29 06:06:35;;;;;;;37.00;23.20;;;1.30;99.90;;;;;;5079870;28;20452;-84
2023/01/29 06:09:02;;;;;;;40.63;23.90;;;1.30;99.90;;;;;;5092759;28;20450;-84
2023/01/29 06:11:30;;;;;;;38.87;23.73;;;1.30;99.90;;;;;;5081072;28;20457;-81
2023/01/29 06:13:58;;;;;;;40.00;24.20;;;1.20;99.90;;;;;;5093230;28;20453;-84
2023/01/29 06:16:25;;;;;;;39.23;24.60;;;1.30;99.90;;;;;;5093453;28;20434;-82
2023/01/29 06:18:51;;;;;;;36.50;23.40;;;1.40;99.90;;;;;;5079932;28;20482;-86
2023/01/29 06:21:18;;;;;;;37.77;23.07;;;1.50;99.90;;;;;;5093302;28;20457;-84
2023/01/29 06:23:45;;;;;;;43.03;24.80;;;1.40;99.90;;;;;;5093120;28;20449;-84
2023/01/29 06:26:14;;;;;;;38.00;23.60;;;1.40;99.90;;;;;;5093177;28;20438;-84
2023/01/29 06:28:44;;;;;;;42.78;27.73;;;1.50;99.90;;;;;;5093095;28;20430;-85
2023/01/29 06:31:11;;;;;;;43.03;25.73;;;1.50;99.90;;;;;;5092930;28;20213;-81
2023/01/29 06:33:38;;;;;;;39.40;24.43;;;1.40;99.90;;;;;;5089341;28;20814;-82
2023/01/29 06:36:06;;;;;;;40.60;25.87;;;1.40;99.90;;;;;;5085071;28;20463;-81
2023/01/29 06:38:34;;;;;;;37.60;23.80;;;1.40;99.90;;;;;;5092521;28;21300;-85
2023/01/29 06:41:09;;;;;;;39.43;23.57;;;1.50;99.90;;;;;;5093151;28;20441;-84
2023/01/29 06:43:36;;;;;;;38.23;24.07;;;1.60;99.90;;;;;;5093216;28;20437;-81
2023/01/29 06:46:06;;;;;;;39.57;24.07;;;1.50;99.90;;;;;;5093133;28;20453;-82
2023/01/29 06:48:38;;;;;;;42.07;25.60;;;1.40;99.90;;;;;;5084351;28;20808;-84
2023/01/29 06:51:08;;;;;;;40.33;24.27;;;1.50;99.90;;;;;;5093057;28;20454;-86
2023/01/29 06:53:37;;;;;;;40.80;24.27;;;1.60;99.90;;;;;;5087025;28;20453;-83
2023/01/29 06:56:04;;;;;;;41.47;24.37;;;1.70;99.90;;;;;;5093962;28;20803;-83
2023/01/29 06:58:31;;;;;;;39.60;24.77;;;1.70;99.90;;;;;;5096813;28;20576;-81
2023/01/29 07:01:05;;;;;;;49.00;36.80;;;1.70;99.90;;;;;;5082275;28;20433;-84
2023/01/29 07:03:32;;;;;;;43.47;28.20;;;1.70;99.90;;;;;;5085606;28;20194;-83
2023/01/29 07:05:59;;;;;;;43.80;27.03;;;1.80;99.90;;;;;;5082262;28;20453;-84
2023/01/29 07:08:27;;;;;;;44.10;27.03;;;1.90;99.90;;;;;;5089431;28;20434;-85
2023/01/29 07:10:53;;;;;;;41.60;25.37;;;1.90;99.90;;;;;;5096914;28;20457;-83
2023/01/29 07:13:20;;;;;;;41.87;25.70;;;1.70;99.90;;;;;;5096907;28;20448;-83
2023/01/29 07:15:47;;;;;;;43.27;25.53;;;1.60;99.90;;;;;;5096536;28;20442;-85
2023/01/29 07:18:15;;;;;;;43.03;25.47;;;1.60;99.90;;;;;;5096642;28;20465;-85
2023/01/29 07:20:42;;;;;;;45.00;25.07;;;1.60;99.90;;;;;;5096662;28;20453;-84
2023/01/29 07:23:12;;;;;;;41.93;25.80;;;1.60;99.90;;;;;;5090423;28;20457;-83
2023/01/29 07:25:39;;;;;;;42.57;26.30;;;1.50;99.90;;;;;;5089493;28;20452;-85
2023/01/29 07:28:06;;;;;;;45.63;25.37;;;1.60;99.90;;;;;;5083046;28;20449;-84
2023/01/29 07:30:33;;;;;;;41.77;26.53;;;1.70;99.90;;;;;;5095738;28;20432;-83
2023/01/29 07:33:04;;;;;;;41.83;25.60;;;1.60;99.90;;;;;;5096170;28;20457;-82
2023/01/29 07:35:37;;;;;;;40.93;25.60;;;1.60;99.90;;;;;;5095956;28;20453;-83
2023/01/29 07:38:06;;;;;;;45.77;26.60;;;1.60;99.90;;;;;;5095792;28;20477;-82
2023/01/29 07:40:34;;;;;;;46.33;26.50;;;1.60;99.90;;;;;;5095627;28;20943;-85
2023/01/29 07:43:03;;;;;;;42.90;26.47;;;1.60;99.90;;;;;;5096278;28;20449;-85
2023/01/29 07:45:30;;;;;;;43.33;25.77;;;1.50;99.90;;;;;;5095929;28;20943;-82
2023/01/29 07:47:58;;;;;;;40.93;26.17;;;1.60;99.90;;;;;;5087097;28;20447;-83
2023/01/29 07:50:26;;;;;;;44.33;25.90;;;1.70;99.90;;;;;;5092159;28;21989;-82
2023/01/29 07:52:55;;;;;;;46.63;27.07;;;1.60;99.90;;;;;;5096179;28;20453;-85
2023/01/29 07:55:23;;;;;;;44.47;27.23;;;1.60;99.90;;;;;;5096160;28;20434;-84
2023/01/29 07:57:56;;;;;;;40.83;26.30;;;1.80;99.90;;;;;;5096454;28;20477;-83
2023/01/29 08:00:26;;;;;;;44.80;27.27;;;1.90;99.90;;;;;;5095515;28;20499;-85
2023/01/29 08:02:53;;;;;;;47.83;27.20;;;1.90;99.90;;;;;;5096649;28;20442;-83
2023/01/29 08:05:21;;;;;;;43.43;27.77;;;2.00;99.90;;;;;;5094880;28;20442;-80
2023/01/29 08:07:52;;;;;;;44.87;27.80;;;2.00;99.90;;;;;;5082418;28;20956;-82
2023/01/29 08:10:21;;;;;;;43.87;27.33;;;2.10;99.90;;;;;;5088636;28;20453;-84
2023/01/29 08:12:53;;;;;;;41.97;26.50;;;2.00;99.90;;;;;;5089160;28;20966;-83
2023/01/29 08:15:20;;;;;;;42.23;27.03;;;2.00;99.90;;;;;;5089120;28;20445;-83
2023/01/29 08:17:46;;;;;;;43.93;26.93;;;2.00;99.90;;;;;;5091826;28;20434;-84
2023/01/29 08:20:13;;;;;;;46.87;27.30;;;2.10;99.90;;;;;;5090046;28;20450;-82
2023/01/29 08:22:41;;;;;;;46.17;28.87;;;2.10;99.90;;;;;;5088373;28;20927;-83
2023/01/29 08:25:09;;;;;;;45.50;27.60;;;2.10;99.90;;;;;;5088616;28;20448;-83
2023/01/29 08:27:37;;;;;;;45.90;27.93;;;2.10;99.90;;;;;;5093349;28;20445;-84
2023/01/29 08:30:05;;;;;;;47.17;27.43;;;2.00;99.90;;;;;;5092472;28;20449;-83
2023/01/29 08:32:32;;;;;;;51.20;37.42;;;2.00;99.90;;;;;;5089421;28;20437;-84
2023/01/29 08:34:58;;;;;;;49.87;30.53;;;1.90;99.90;;;;;;5094633;28;20197;-83
2023/01/29 08:37:25;;;;;;;47.93;29.23;;;1.90;99.90;;;;;;5081702;28;20445;-83
2023/01/29 08:39:53;;;;;;;44.00;27.17;;;1.90;99.90;;;;;;5094391;28;20987;-83
2023/01/29 08:42:20;;;;;;;42.73;27.33;;;1.90;99.90;;;;;;5077303;28;20454;-82
2023/01/29 08:44:50;;;;;;;43.40;27.73;;;2.00;99.90;;;;;;5083336;28;20449;-83
2023/01/29 08:47:19;;;;;;;41.93;27.33;;;2.00;99.90;;;;;;5094064;28;20465;-80
2023/01/29 08:49:46;;;;;;;46.03;27.33;;;1.90;99.90;;;;;;5094102;28;20441;-83
2023/01/29 08:52:13;;;;;;;41.93;27.00;;;2.00;99.90;;;;;;5095015;28;20442;-83
2023/01/29 08:54:40;;;;;;;42.20;26.50;;;2.10;99.90;;;;;;5083416;28;20964;-82
2023/01/29 08:57:08;;;;;;;45.40;28.57;;;2.30;99.90;;;;;;5091983;28;20445;-83
2023/01/29 08:59:35;;;;;;;41.80;27.47;;;2.40;99.90;;;;;;5092725;28;20489;-83
2023/01/29 09:02:04;;;;;;;46.77;28.93;;;2.30;99.90;;;;;;5093603;28;20453;-85
2023/01/29 09:04:38;;;;;;;42.93;27.03;;;2.30;99.90;;;;;;5094574;28;20457;-85
2023/01/29 09:07:07;;;;;;;44.07;27.60;;;2.40;99.90;;;;;;5094553;28;20440;-83
2023/01/29 09:09:40;;;;;;;47.33;27.57;;;2.40;99.90;;;;;;5094117;28;20438;-85
2023/01/29 09:12:11;;;;;;;45.77;27.87;;;2.50;99.90;;;;;;5084831;28;20443;-84
2023/01/29 09:14:38;;;;;;;45.37;27.73;;;2.50;99.90;;;;;;5089826;28;20515;-82
2023/01/29 09:17:07;;;;;;;43.40;27.60;;;2.50;99.90;;;;;;5094533;28;20446;-79
2023/01/29 09:19:33;;;;;;;41.50;27.50;;;2.40;99.90;;;;;;5080485;28;20480;-84
2023/01/29 09:22:00;;;;;;;43.33;27.57;;;2.40;99.90;;;;;;5093042;28;20442;-83
2023/01/29 09:24:27;;;;;;;43.50;27.10;;;2.40;99.90;;;;;;5094272;28;20434;-83
2023/01/29 09:26:54;;;;;;;41.77;27.87;;;2.30;99.90;;;;;;5094505;28;20449;-84
2023/01/29 09:29:21;;;;;;;45.40;28.17;;;2.20;99.90;;;;;;5093699;28;20449;-83
2023/01/29 09:31:49;;;;;;;47.20;28.10;;;2.30;99.90;;;;;;5094011;28;20438;-82
2023/01/29 09:34:17;;;;;;;41.23;26.53;;;2.20;99.90;;;;;;5080450;28;20438;-84
2023/01/29 09:36:44;;;;;;;46.93;28.67;;;2.40;99.90;;;;;;5093804;28;20445;-79
2023/01/29 09:39:11;;;;;;;43.60;25.70;;;2.50;99.90;;;;;;5080111;28;20552;-81
2023/01/29 09:41:50;;;;;;;44.10;26.50;;;2.50;99.90;;;;;;5083068;28;20449;-79
2023/01/29 09:44:23;;;;;;;43.73;27.67;;;2.60;99.90;;;;;;5093991;28;20469;-80
2023/01/29 09:46:53;;;;;;;39.33;25.50;;;2.60;99.90;;;;;;5093954;28;20457;-82
2023/01/29 09:49:26;;;;;;;50.58;36.20;;;2.70;99.90;;;;;;5093733;28;20444;-80
2023/01/29 09:51:58;;;;;;;43.03;28.90;;;2.80;99.90;;;;;;5094460;28;20212;-79
2023/01/29 09:54:29;;;;;;;39.67;25.93;;;3.00;99.90;;;;;;5094540;28;20528;-81
2023/01/29 09:56:57;;;;;;;37.33;24.97;;;3.00;99.90;;;;;;5080618;28;20452;-81
2023/01/29 09:59:29;;;;;;;40.80;26.53;;;2.90;99.90;;;;;;5094535;28;20485;-83
2023/01/29 10:02:07;;;;;;;38.87;26.07;;;3.00;99.90;;;;;;5091155;28;20952;-82
2023/01/29 10:05:02;;;;;;;42.73;25.07;;;3.00;99.90;;;;;;5086841;28;20453;-83
2023/01/29 10:07:51;;;;;;;37.20;23.03;;;3.10;99.90;;;;;;5093880;28;20943;-83
2023/01/29 10:10:35;;;;;;;35.47;23.90;;;3.30;99.90;;;;;;5093735;28;20450;-83
2023/01/29 10:13:11;;;;;;;34.13;22.70;;;3.30;99.90;;;;;;5081106;28;20849;-87
2023/01/29 10:16:02;;;;;;;39.90;24.23;;;3.40;99.90;;;;;;5085559;28;20450;-83
2023/01/29 10:19:08;;;;;;;37.57;24.30;;;3.30;99.90;;;;;;5093923;28;20436;-81
2023/01/29 10:22:07;;;;;;;34.73;22.80;;;3.20;99.90;;;;;;5093926;28;20454;-84
2023/01/29 10:24:40;;;;;;;36.57;23.83;;;3.30;99.90;;;;;;5094026;28;21021;-85
2023/01/29 10:27:15;;;;;;;39.77;24.87;;;3.40;99.90;;;;;;5096711;28;20904;-84
2023/01/29 10:29:43;;;;;;;35.97;22.83;;;3.40;99.90;;;;;;5099514;28;20454;-83
2023/01/29 10:32:16;;;;;;;34.90;23.23;;;3.30;99.90;;;;;;5099370;28;20863;-82
2023/01/29 10:34:48;;;;;;;35.23;22.07;;;3.40;99.90;;;;;;5097502;28;20445;-82
2023/01/29 10:37:18;;;;;;;36.33;23.27;;;3.50;99.90;;;;;;5096175;28;20445;-83
2023/01/29 10:39:47;;;;;;;33.13;22.10;;;3.50;99.90;;;;;;5096088;28;20976;-82
2023/01/29 10:42:23;;;;;;;30.90;20.70;;;3.60;99.90;;;;;;5094814;28;20456;-82
2023/01/29 10:45:05;;;;;;;30.80;21.10;;;3.70;99.90;;;;;;5083313;28;20456;-80
2023/01/29 10:48:03;;;;;;;30.17;20.27;;;3.70;99.90;;;;;;5092703;28;20440;-78
2023/01/29 10:50:46;;;;;;;31.27;20.57;;;3.60;99.90;;;;;;5092033;28;20823;-82
2023/01/29 10:53:27;;;;;;;34.37;21.87;;;3.60;99.90;;;;;;5081142;28;20457;-78
2023/01/29 10:56:08;;;;;;;33.80;21.03;;;3.70;99.90;;;;;;5082823;28;20449;-81
2023/01/29 10:58:41;;;;;;;36.13;20.87;;;3.60;99.90;;;;;;5092605;28;20457;-82
2023/01/29 11:01:08;;;;;;;32.80;20.90;;;3.50;99.90;;;;;;5092755;28;20849;-82
2023/01/29 11:03:37;;;;;;;34.60;22.30;;;3.60;99.90;;;;;;5093220;28;20446;-79
2023/01/29 11:06:16;;;;;;;38.37;22.50;;;3.60;99.90;;;;;;5087028;28;20451;-80
2023/01/29 11:08:51;;;;;;;35.53;23.43;;;3.60;99.90;;;;;;5088773;28;20458;-80
2023/01/29 11:11:21;;;;;;;33.57;22.00;;;3.80;99.90;;;;;;5087498;28;20437;-81
2023/01/29 11:13:54;;;;;;;39.30;23.53;;;3.70;99.90;;;;;;5079773;28;20866;-80
2023/01/29 11:16:22;;;;;;;34.23;22.20;;;3.80;99.90;;;;;;5080846;28;20439;-80
2023/01/29 11:18:55;;;;;;;39.88;30.60;;;3.80;99.90;;;;;;5089237;28;20430;-86
2023/01/29 11:21:23;;;;;;;36.20;24.70;;;3.70;99.90;;;;;;5089484;28;20204;-82
2023/01/29 11:24:05;;;;;;;34.97;23.17;;;3.80;99.90;;;;;;5083416;28;20289;-79
2023/01/29 11:26:38;;;;;;;34.77;23.63;;;3.90;99.90;;;;;;5096569;28;20215;-77
2023/01/29 11:29:05;;;;;;;36.57;24.40;;;4.10;99.90;;;;;;5096678;28;20453;-77
2023/01/29 11:31:38;;;;;;;39.10;23.77;;;4.10;99.90;;;;;;5095951;28;20212;-79
2023/01/29 11:34:26;;;;;;;32.10;22.17;;;4.20;99.90;;;;;;5095658;28;20201;-80
2023/01/29 11:36:57;;;;;;;36.43;22.73;;;4.30;99.90;;;;;;5085506;28;20228;-82
2023/01/29 11:39:28;;;;;;;36.63;22.60;;;4.20;99.90;;;;;;5096922;28;20209;-79
2023/01/29 11:41:59;;;;;;;35.43;23.93;;;4.20;99.90;;;;;;5089481;28;20292;-80
2023/01/29 11:44:32;;;;;;;35.20;22.97;;;4.10;99.90;;;;;;5087903;28;20253;-79
2023/01/29 11:47:12;;;;;;;35.43;22.90;;;4.10;99.90;;;;;;5084027;28;20539;-80
2023/01/29 11:49:44;;;;;;;34.33;21.93;;;4.10;99.90;;;;;;5101002;28;20679;-81
2023/01/29 11:52:12;;;;;;;36.87;24.00;;;4.20;99.90;;;;;;5090553;28;20209;-80
2023/01/29 11:54:46;;;;;;;35.57;22.87;;;4.30;99.90;;;;;;5080568;28;20648;-81
2023/01/29 11:57:27;;;;;;;35.47;22.00;;;4.20;99.90;;;;;;5083944;28;20216;-81
2023/01/29 11:59:56;;;;;;;29.67;18.73;;;4.20;99.90;;;;;;5086615;28;20492;-80
2023/01/29 12:02:29;;;;;;;30.97;21.03;;;4.20;99.90;;;;;;5097689;28;20457;-83
2023/01/29 12:05:00;;;;;;;38.23;22.13;;;4.30;99.90;;;;;;5096762;28;20203;-79
2023/01/29 12:07:28;;;;;;;35.13;21.80;;;4.30;99.90;;;;;;5086534;28;20200;-80
2023/01/29 12:09:59;;;;;;;30.67;20.60;;;4.30;99.90;;;;;;5097951;28;20209;-83
2023/01/29 12:12:39;;;;;;;28.87;19.90;;;4.40;99.90;;;;;;5097407;28;20449;-81
2023/01/29 12:15:18;;;;;;;30.53;20.13;;;4.40;99.90;;;;;;5098902;28;20205;-82
2023/01/29 12:18:04;;;;;;;36.37;21.83;;;4.30;99.90;;;;;;5097429;28;20450;-78
2023/01/29 12:20:37;;;;;;;31.37;20.27;;;4.40;99.90;;;;;;5100970;28;20238;-80
2023/01/29 12:23:11;;;;;;;33.73;20.00;;;4.50;99.90;;;;;;5095947;28;20212;-83
2023/01/29 12:25:47;;;;;;;28.97;19.63;;;4.40;99.90;;;;;;5093407;28;20444;-80
2023/01/29 12:28:26;;;;;;;29.30;19.27;;;4.40;99.90;;;;;;5095186;28;20215;-81
2023/01/29 12:31:06;;;;;;;29.23;19.30;;;4.50;99.90;;;;;;5090407;28;20218;-80
2023/01/29 12:33:43;;;;;;;30.47;19.80;;;4.60;99.90;;;;;;5092462;28;20216;-80
2023/01/29 12:36:18;;;;;;;30.73;19.93;;;4.60;99.90;;;;;;5101124;28;20216;-80
2023/01/29 12:38:45;;;;;;;27.70;18.80;;;4.60;99.90;;;;;;5098953;28;20197;-80
2023/01/29 12:41:28;;;;;;;28.77;18.97;;;4.70;99.90;;;;;;5100488;28;20595;-82
2023/01/29 12:44:01;;;;;;;24.77;17.87;;;4.70;99.90;;;;;;5099536;28;20201;-79
2023/01/29 12:46:34;;;;;;;29.30;18.03;;;4.80;99.90;;;;;;5099777;28;20231;-79
2023/01/29 12:49:07;;;;;;;30.00;23.75;;;4.70;99.90;;;;;;5096716;28;20419;-78
2023/01/29 12:51:39;;;;;;;24.77;17.47;;;4.80;99.90;;;;;;5095747;28;20561;-80
2023/01/29 12:54:12;;;;;;;22.60;16.97;;;4.80;99.90;;;;;;5096725;28;20207;-79
2023/01/29 12:56:45;;;;;;;24.97;17.37;;;4.80;99.90;;;;;;5095882;28;20201;-80
2023/01/29 12:59:19;;;;;;;29.63;17.67;;;4.80;99.90;;;;;;5095808;28;20205;-81
2023/01/29 13:01:52;;;;;;;24.70;17.57;;;4.70;99.90;;;;;;5095654;28;20280;-84
2023/01/29 13:04:30;;;;;;;24.10;16.70;;;4.60;99.90;;;;;;5095929;28;20189;-83
2023/01/29 13:07:09;;;;;;;27.57;16.07;;;4.60;99.90;;;;;;5089261;28;20202;-79
2023/01/29 13:09:38;;;;;;;24.83;17.13;;;4.50;99.90;;;;;;5089365;28;20204;-82
2023/01/29 13:12:12;;;;;;;23.53;15.37;;;4.40;99.90;;;;;;5094443;28;20209;-82
2023/01/29 13:14:45;;;;;;;22.83;14.87;;;4.40;99.90;;;;;;5094606;28;20209;-80
2023/01/29 13:17:19;;;;;;;24.93;15.73;;;4.40;99.90;;;;;;5084510;28;20210;-81
2023/01/29 13:19:50;;;;;;;25.10;16.10;;;4.40;99.90;;;;;;5095585;28;20593;-80
2023/01/29 13:22:22;;;;;;;22.07;15.30;;;4.50;99.90;;;;;;5096508;28;20199;-83
2023/01/29 13:24:50;;;;;;;24.00;16.13;;;4.60;99.90;;;;;;5097305;28;20205;-82
2023/01/29 13:27:25;;;;;;;21.27;15.13;;;4.60;99.90;;;;;;5099918;28;20590;-81
2023/01/29 13:29:52;;;;;;;22.50;14.70;;;4.60;99.90;;;;;;5101685;28;20208;-82
2023/01/29 13:32:25;;;;;;;22.60;15.33;;;4.60;99.90;;;;;;5100067;28;20309;-84